sensor_id;sensor_type;location;lat;lon;timestamp;P1;durP1;ratioP1;P2;durP2;ratioP2
11191;SDS011;5652;48.406;10.820;2023-03-01T00:00:54;19.90;;;15.43;;
11191;SDS011;5652;48.406;10.820;2023-03-01T00:03:21;19.38;;;15.27;;
11191;SDS011;5652;48.406;10.820;2023-03-01T00:05:49;19.17;;;14.85;;
11191;SDS011;5652;48.406;10.820;2023-03-01T00:08:17;19.97;;;15.57;;
11191;SDS011;5652;48.406;10.820;2023-03-01T00:10:44;19.50;;;14.27;;
11191;SDS011;5652;48.406;10.820;2023-03-01T00:13:11;20.77;;;15.20;;
11191;SDS011;5652;48.406;10.820;2023-03-01T00:15:39;19.70;;;14.38;;
11191;SDS011;5652;48.406;10.820;2023-03-01T00:18:06;20.75;;;14.55;;
11191;SDS011;5652;48.406;10.820;2023-03-01T00:20:33;20.13;;;14.30;;
11191;SDS011;5652;48.406;10.820;2023-03-01T00:23:00;20.40;;;14.45;;
11191;SDS011;5652;48.406;10.820;2023-03-01T00:25:29;22.20;;;15.00;;
11191;SDS011;5652;48.406;10.820;2023-03-01T00:27:56;23.30;;;15.52;;
11191;SDS011;5652;48.406;10.820;2023-03-01T00:30:23;20.50;;;14.95;;
11191;SDS011;5652;48.406;10.820;2023-03-01T00:32:50;20.40;;;15.05;;
11191;SDS011;5652;48.406;10.820;2023-03-01T00:35:17;20.08;;;14.43;;
11191;SDS011;5652;48.406;10.820;2023-03-01T00:37:44;19.08;;;14.75;;
11191;SDS011;5652;48.406;10.820;2023-03-01T00:40:12;19.70;;;14.73;;
11191;SDS011;5652;48.406;10.820;2023-03-01T00:42:42;23.00;;;16.10;;
11191;SDS011;5652;48.406;10.820;2023-03-01T00:45:10;21.58;;;15.63;;
11191;SDS011;5652;48.406;10.820;2023-03-01T00:47:38;19.92;;;14.75;;
11191;SDS011;5652;48.406;10.820;2023-03-01T00:50:05;20.95;;;15.43;;
11191;SDS011;5652;48.406;10.820;2023-03-01T00:52:32;22.63;;;15.90;;
11191;SDS011;5652;48.406;10.820;2023-03-01T00:55:00;20.10;;;14.88;;
11191;SDS011;5652;48.406;10.820;2023-03-01T00:57:27;24.40;;;16.00;;
11191;SDS011;5652;48.406;10.820;2023-03-01T00:59:55;25.38;;;16.40;;
11191;SDS011;5652;48.406;10.820;2023-03-01T01:02:22;20.55;;;15.75;;
11191;SDS011;5652;48.406;10.820;2023-03-01T01:04:49;22.30;;;17.13;;
11191;SDS011;5652;48.406;10.820;2023-03-01T01:07:17;23.35;;;15.60;;
11191;SDS011;5652;48.406;10.820;2023-03-01T01:09:45;20.92;;;15.68;;
11191;SDS011;5652;48.406;10.820;2023-03-01T01:12:12;22.77;;;16.07;;
11191;SDS011;5652;48.406;10.820;2023-03-01T01:14:39;22.35;;;16.38;;
11191;SDS011;5652;48.406;10.820;2023-03-01T01:17:08;20.73;;;15.40;;
11191;SDS011;5652;48.406;10.820;2023-03-01T01:19:36;22.08;;;16.30;;
11191;SDS011;5652;48.406;10.820;2023-03-01T01:22:03;22.90;;;15.43;;
11191;SDS011;5652;48.406;10.820;2023-03-01T01:24:30;23.15;;;15.90;;
11191;SDS011;5652;48.406;10.820;2023-03-01T01:26:57;20.75;;;15.55;;
11191;SDS011;5652;48.406;10.820;2023-03-01T01:29:24;22.58;;;16.50;;
11191;SDS011;5652;48.406;10.820;2023-03-01T01:31:51;22.80;;;16.75;;
11191;SDS011;5652;48.406;10.820;2023-03-01T01:34:20;22.35;;;16.63;;
11191;SDS011;5652;48.406;10.820;2023-03-01T01:36:48;24.17;;;16.38;;
11191;SDS011;5652;48.406;10.820;2023-03-01T01:39:15;21.25;;;15.75;;
11191;SDS011;5652;48.406;10.820;2023-03-01T01:41:43;21.73;;;15.93;;
11191;SDS011;5652;48.406;10.820;2023-03-01T01:44:15;22.27;;;16.35;;
11191;SDS011;5652;48.406;10.820;2023-03-01T01:46:43;21.48;;;16.35;;
11191;SDS011;5652;48.406;10.820;2023-03-01T01:49:14;23.08;;;16.50;;
11191;SDS011;5652;48.406;10.820;2023-03-01T01:51:45;23.30;;;16.42;;
11191;SDS011;5652;48.406;10.820;2023-03-01T01:54:14;23.15;;;16.20;;
11191;SDS011;5652;48.406;10.820;2023-03-01T01:56:44;23.60;;;16.52;;
11191;SDS011;5652;48.406;10.820;2023-03-01T01:59:12;22.30;;;16.33;;
11191;SDS011;5652;48.406;10.820;2023-03-01T02:01:41;22.50;;;16.35;;
11191;SDS011;5652;48.406;10.820;2023-03-01T02:04:08;22.80;;;16.48;;
11191;SDS011;5652;48.406;10.820;2023-03-01T02:06:36;23.60;;;16.40;;
11191;SDS011;5652;48.406;10.820;2023-03-01T02:09:06;23.23;;;16.58;;
11191;SDS011;5652;48.406;10.820;2023-03-01T02:11:34;23.20;;;16.45;;
11191;SDS011;5652;48.406;10.820;2023-03-01T02:14:02;24.27;;;17.02;;
11191;SDS011;5652;48.406;10.820;2023-03-01T02:16:30;23.75;;;16.65;;
11191;SDS011;5652;48.406;10.820;2023-03-01T02:18:57;23.90;;;17.13;;
11191;SDS011;5652;48.406;10.820;2023-03-01T02:21:28;24.77;;;17.17;;
11191;SDS011;5652;48.406;10.820;2023-03-01T02:23:58;22.98;;;16.80;;
11191;SDS011;5652;48.406;10.820;2023-03-01T02:26:29;22.50;;;16.58;;
11191;SDS011;5652;48.406;10.820;2023-03-01T02:29:01;24.15;;;16.95;;
11191;SDS011;5652;48.406;10.820;2023-03-01T02:31:30;23.20;;;16.67;;
11191;SDS011;5652;48.406;10.820;2023-03-01T02:34:10;23.00;;;16.40;;
11191;SDS011;5652;48.406;10.820;2023-03-01T02:36:39;25.02;;;17.02;;
11191;SDS011;5652;48.406;10.820;2023-03-01T02:39:07;22.93;;;17.67;;
11191;SDS011;5652;48.406;10.820;2023-03-01T02:41:39;23.25;;;17.15;;
11191;SDS011;5652;48.406;10.820;2023-03-01T02:44:08;25.27;;;17.77;;
11191;SDS011;5652;48.406;10.820;2023-03-01T02:46:41;24.20;;;18.38;;
11191;SDS011;5652;48.406;10.820;2023-03-01T02:49:22;24.42;;;18.00;;
11191;SDS011;5652;48.406;10.820;2023-03-01T02:51:56;25.38;;;19.02;;
11191;SDS011;5652;48.406;10.820;2023-03-01T02:54:28;23.85;;;18.48;;
11191;SDS011;5652;48.406;10.820;2023-03-01T02:56:57;24.30;;;18.20;;
11191;SDS011;5652;48.406;10.820;2023-03-01T02:59:26;25.80;;;19.23;;
11191;SDS011;5652;48.406;10.820;2023-03-01T03:01:56;23.38;;;18.58;;
11191;SDS011;5652;48.406;10.820;2023-03-01T03:04:23;23.27;;;18.58;;
11191;SDS011;5652;48.406;10.820;2023-03-01T03:06:50;23.77;;;18.15;;
11191;SDS011;5652;48.406;10.820;2023-03-01T03:09:18;21.88;;;17.80;;
11191;SDS011;5652;48.406;10.820;2023-03-01T03:11:45;23.00;;;18.05;;
11191;SDS011;5652;48.406;10.820;2023-03-01T03:14:13;22.25;;;17.23;;
11191;SDS011;5652;48.406;10.820;2023-03-01T03:16:43;22.20;;;17.27;;
11191;SDS011;5652;48.406;10.820;2023-03-01T03:19:11;21.80;;;17.15;;
11191;SDS011;5652;48.406;10.820;2023-03-01T03:21:38;23.23;;;17.27;;
11191;SDS011;5652;48.406;10.820;2023-03-01T03:24:05;23.83;;;17.60;;
11191;SDS011;5652;48.406;10.820;2023-03-01T03:26:32;20.98;;;16.73;;
11191;SDS011;5652;48.406;10.820;2023-03-01T03:28:59;22.27;;;16.80;;
11191;SDS011;5652;48.406;10.820;2023-03-01T03:31:26;23.50;;;16.67;;
11191;SDS011;5652;48.406;10.820;2023-03-01T03:33:55;23.20;;;17.53;;
11191;SDS011;5652;48.406;10.820;2023-03-01T03:36:24;22.60;;;17.50;;
11191;SDS011;5652;48.406;10.820;2023-03-01T03:38:51;21.67;;;17.63;;
11191;SDS011;5652;48.406;10.820;2023-03-01T03:41:18;22.45;;;17.38;;
11191;SDS011;5652;48.406;10.820;2023-03-01T03:43:45;21.38;;;17.00;;
11191;SDS011;5652;48.406;10.820;2023-03-01T03:46:13;21.00;;;17.00;;
11191;SDS011;5652;48.406;10.820;2023-03-01T03:48:42;23.25;;;17.00;;
11191;SDS011;5652;48.406;10.820;2023-03-01T03:51:12;21.45;;;17.05;;
11191;SDS011;5652;48.406;10.820;2023-03-01T03:53:39;21.77;;;16.63;;
11191;SDS011;5652;48.406;10.820;2023-03-01T03:56:06;22.53;;;17.27;;
11191;SDS011;5652;48.406;10.820;2023-03-01T03:58:34;21.90;;;16.97;;
11191;SDS011;5652;48.406;10.820;2023-03-01T04:01:01;21.17;;;16.30;;
11191;SDS011;5652;48.406;10.820;2023-03-01T04:03:29;22.02;;;16.98;;
11191;SDS011;5652;48.406;10.820;2023-03-01T04:05:57;21.75;;;16.70;;
11191;SDS011;5652;48.406;10.820;2023-03-01T04:08:26;98.13;;;48.70;;
11191;SDS011;5652;48.406;10.820;2023-03-01T04:10:56;34.53;;;22.13;;
11191;SDS011;5652;48.406;10.820;2023-03-01T04:13:24;40.85;;;26.50;;
11191;SDS011;5652;48.406;10.820;2023-03-01T04:15:51;23.53;;;18.47;;
11191;SDS011;5652;48.406;10.820;2023-03-01T04:18:19;23.17;;;17.75;;
11191;SDS011;5652;48.406;10.820;2023-03-01T04:20:46;20.17;;;16.48;;
11191;SDS011;5652;48.406;10.820;2023-03-01T04:23:14;23.02;;;17.50;;
11191;SDS011;5652;48.406;10.820;2023-03-01T04:25:46;21.57;;;17.67;;
11191;SDS011;5652;48.406;10.820;2023-03-01T04:28:18;22.17;;;17.17;;
11191;SDS011;5652;48.406;10.820;2023-03-01T04:30:45;21.35;;;17.33;;
11191;SDS011;5652;48.406;10.820;2023-03-01T04:33:12;22.10;;;17.38;;
11191;SDS011;5652;48.406;10.820;2023-03-01T04:35:39;23.38;;;17.27;;
11191;SDS011;5652;48.406;10.820;2023-03-01T04:38:07;21.17;;;16.95;;
11191;SDS011;5652;48.406;10.820;2023-03-01T04:40:34;22.05;;;17.40;;
11191;SDS011;5652;48.406;10.820;2023-03-01T04:43:03;22.95;;;18.08;;
11191;SDS011;5652;48.406;10.820;2023-03-01T04:45:31;23.52;;;18.27;;
11191;SDS011;5652;48.406;10.820;2023-03-01T04:47:59;22.17;;;17.80;;
11191;SDS011;5652;48.406;10.820;2023-03-01T04:50:26;25.07;;;18.97;;
11191;SDS011;5652;48.406;10.820;2023-03-01T04:52:53;24.38;;;18.38;;
11191;SDS011;5652;48.406;10.820;2023-03-01T04:55:23;24.83;;;19.10;;
11191;SDS011;5652;48.406;10.820;2023-03-01T04:57:50;22.15;;;18.13;;
11191;SDS011;5652;48.406;10.820;2023-03-01T05:00:20;27.20;;;19.60;;
11191;SDS011;5652;48.406;10.820;2023-03-01T05:02:48;24.52;;;18.80;;
11191;SDS011;5652;48.406;10.820;2023-03-01T05:05:18;25.20;;;19.60;;
11191;SDS011;5652;48.406;10.820;2023-03-01T05:07:45;23.47;;;19.00;;
11191;SDS011;5652;48.406;10.820;2023-03-01T05:10:12;26.63;;;20.25;;
11191;SDS011;5652;48.406;10.820;2023-03-01T05:12:39;27.63;;;20.33;;
11191;SDS011;5652;48.406;10.820;2023-03-01T05:15:07;26.15;;;20.75;;
11191;SDS011;5652;48.406;10.820;2023-03-01T05:17:35;27.38;;;21.05;;
11191;SDS011;5652;48.406;10.820;2023-03-01T05:20:03;26.90;;;20.73;;
11191;SDS011;5652;48.406;10.820;2023-03-01T05:22:33;26.55;;;20.92;;
11191;SDS011;5652;48.406;10.820;2023-03-01T05:25:00;27.42;;;20.92;;
11191;SDS011;5652;48.406;10.820;2023-03-01T05:27:27;27.03;;;21.77;;
11191;SDS011;5652;48.406;10.820;2023-03-01T05:29:55;27.17;;;21.75;;
11191;SDS011;5652;48.406;10.820;2023-03-01T05:32:22;28.55;;;22.20;;
11191;SDS011;5652;48.406;10.820;2023-03-01T05:34:50;28.95;;;21.90;;
11191;SDS011;5652;48.406;10.820;2023-03-01T05:37:20;28.42;;;22.10;;
11191;SDS011;5652;48.406;10.820;2023-03-01T05:39:47;28.10;;;22.25;;
11191;SDS011;5652;48.406;10.820;2023-03-01T05:42:15;28.00;;;21.65;;
11191;SDS011;5652;48.406;10.820;2023-03-01T05:44:43;29.45;;;22.13;;
11191;SDS011;5652;48.406;10.820;2023-03-01T05:47:10;28.13;;;21.60;;
11191;SDS011;5652;48.406;10.820;2023-03-01T05:49:37;28.43;;;22.67;;
11191;SDS011;5652;48.406;10.820;2023-03-01T05:52:06;27.50;;;21.75;;
11191;SDS011;5652;48.406;10.820;2023-03-01T05:54:33;29.67;;;22.15;;
11191;SDS011;5652;48.406;10.820;2023-03-01T05:57:01;28.48;;;21.98;;
11191;SDS011;5652;48.406;10.820;2023-03-01T05:59:28;30.55;;;22.40;;
11191;SDS011;5652;48.406;10.820;2023-03-01T06:01:55;30.85;;;22.98;;
11191;SDS011;5652;48.406;10.820;2023-03-01T06:04:22;29.08;;;22.23;;
11191;SDS011;5652;48.406;10.820;2023-03-01T06:06:49;31.55;;;23.00;;
11191;SDS011;5652;48.406;10.820;2023-03-01T06:09:18;29.60;;;23.52;;
11191;SDS011;5652;48.406;10.820;2023-03-01T06:11:45;28.75;;;22.75;;
11191;SDS011;5652;48.406;10.820;2023-03-01T06:14:12;29.77;;;23.30;;
11191;SDS011;5652;48.406;10.820;2023-03-01T06:16:39;30.45;;;22.98;;
11191;SDS011;5652;48.406;10.820;2023-03-01T06:19:06;30.52;;;24.00;;
11191;SDS011;5652;48.406;10.820;2023-03-01T06:21:33;31.25;;;23.60;;
11191;SDS011;5652;48.406;10.820;2023-03-01T06:24:00;32.70;;;23.50;;
11191;SDS011;5652;48.406;10.820;2023-03-01T06:26:29;27.98;;;22.35;;
11191;SDS011;5652;48.406;10.820;2023-03-01T06:28:56;30.00;;;23.10;;
11191;SDS011;5652;48.406;10.820;2023-03-01T06:31:23;29.42;;;23.23;;
11191;SDS011;5652;48.406;10.820;2023-03-01T06:33:50;32.90;;;23.75;;
11191;SDS011;5652;48.406;10.820;2023-03-01T06:36:17;33.03;;;24.05;;
11191;SDS011;5652;48.406;10.820;2023-03-01T06:38:46;29.35;;;23.10;;
11191;SDS011;5652;48.406;10.820;2023-03-01T06:41:13;31.55;;;23.45;;
11191;SDS011;5652;48.406;10.820;2023-03-01T06:43:41;30.05;;;22.33;;
11191;SDS011;5652;48.406;10.820;2023-03-01T06:46:08;30.10;;;22.50;;
11191;SDS011;5652;48.406;10.820;2023-03-01T06:48:35;29.48;;;22.38;;
11191;SDS011;5652;48.406;10.820;2023-03-01T06:51:03;30.67;;;23.20;;
11191;SDS011;5652;48.406;10.820;2023-03-01T06:53:30;27.93;;;21.87;;
11191;SDS011;5652;48.406;10.820;2023-03-01T06:55:58;27.42;;;21.48;;
11191;SDS011;5652;48.406;10.820;2023-03-01T06:58:26;28.80;;;20.88;;
11191;SDS011;5652;48.406;10.820;2023-03-01T07:00:54;26.27;;;21.00;;
11191;SDS011;5652;48.406;10.820;2023-03-01T07:03:22;28.88;;;21.17;;
11191;SDS011;5652;48.406;10.820;2023-03-01T07:05:49;27.02;;;20.45;;
11191;SDS011;5652;48.406;10.820;2023-03-01T07:08:17;28.15;;;20.65;;
11191;SDS011;5652;48.406;10.820;2023-03-01T07:10:44;25.30;;;19.83;;
11191;SDS011;5652;48.406;10.820;2023-03-01T07:13:11;27.38;;;20.55;;
11191;SDS011;5652;48.406;10.820;2023-03-01T07:15:39;25.73;;;20.55;;
11191;SDS011;5652;48.406;10.820;2023-03-01T07:18:08;26.60;;;20.27;;
11191;SDS011;5652;48.406;10.820;2023-03-01T07:20:35;27.93;;;20.37;;
11191;SDS011;5652;48.406;10.820;2023-03-01T07:23:02;26.90;;;20.58;;
11191;SDS011;5652;48.406;10.820;2023-03-01T07:25:30;27.05;;;20.65;;
11191;SDS011;5652;48.406;10.820;2023-03-01T07:27:57;26.98;;;19.73;;
11191;SDS011;5652;48.406;10.820;2023-03-01T07:30:24;26.67;;;19.60;;
11191;SDS011;5652;48.406;10.820;2023-03-01T07:32:53;25.20;;;18.27;;
11191;SDS011;5652;48.406;10.820;2023-03-01T07:35:21;24.70;;;18.23;;
11191;SDS011;5652;48.406;10.820;2023-03-01T07:37:48;23.98;;;18.80;;
11191;SDS011;5652;48.406;10.820;2023-03-01T07:40:16;23.10;;;18.08;;
11191;SDS011;5652;48.406;10.820;2023-03-01T07:42:43;24.58;;;18.20;;
11191;SDS011;5652;48.406;10.820;2023-03-01T07:45:10;23.10;;;18.03;;
11191;SDS011;5652;48.406;10.820;2023-03-01T07:47:39;23.10;;;17.42;;
11191;SDS011;5652;48.406;10.820;2023-03-01T07:50:06;24.65;;;17.88;;
11191;SDS011;5652;48.406;10.820;2023-03-01T07:52:35;23.65;;;17.58;;
11191;SDS011;5652;48.406;10.820;2023-03-01T07:55:02;26.40;;;17.35;;
11191;SDS011;5652;48.406;10.820;2023-03-01T07:57:29;22.83;;;16.95;;
11191;SDS011;5652;48.406;10.820;2023-03-01T07:59:56;22.45;;;16.60;;
11191;SDS011;5652;48.406;10.820;2023-03-01T08:02:23;23.58;;;16.23;;
11191;SDS011;5652;48.406;10.820;2023-03-01T08:04:51;22.85;;;16.13;;
11191;SDS011;5652;48.406;10.820;2023-03-01T08:07:18;24.02;;;17.63;;
11191;SDS011;5652;48.406;10.820;2023-03-01T08:09:46;23.33;;;16.15;;
11191;SDS011;5652;48.406;10.820;2023-03-01T08:12:13;23.95;;;16.17;;
11191;SDS011;5652;48.406;10.820;2023-03-01T08:14:41;22.65;;;16.77;;
11191;SDS011;5652;48.406;10.820;2023-03-01T08:17:08;23.52;;;17.15;;
11191;SDS011;5652;48.406;10.820;2023-03-01T08:19:36;22.65;;;16.80;;
11191;SDS011;5652;48.406;10.820;2023-03-01T08:22:03;24.27;;;17.15;;
11191;SDS011;5652;48.406;10.820;2023-03-01T08:24:31;24.38;;;16.65;;
11191;SDS011;5652;48.406;10.820;2023-03-01T08:26:59;22.17;;;16.40;;
11191;SDS011;5652;48.406;10.820;2023-03-01T08:29:27;20.42;;;16.00;;
11191;SDS011;5652;48.406;10.820;2023-03-01T08:31:55;23.30;;;16.17;;
11191;SDS011;5652;48.406;10.820;2023-03-01T08:34:22;20.37;;;15.23;;
11191;SDS011;5652;48.406;10.820;2023-03-01T08:36:49;21.98;;;15.32;;
11191;SDS011;5652;48.406;10.820;2023-03-01T08:39:17;20.27;;;14.10;;
11191;SDS011;5652;48.406;10.820;2023-03-01T08:41:45;21.70;;;15.25;;
11191;SDS011;5652;48.406;10.820;2023-03-01T08:44:14;20.80;;;15.38;;
11191;SDS011;5652;48.406;10.820;2023-03-01T08:46:42;23.13;;;15.32;;
11191;SDS011;5652;48.406;10.820;2023-03-01T08:49:11;21.92;;;15.57;;
11191;SDS011;5652;48.406;10.820;2023-03-01T08:51:38;22.60;;;15.35;;
11191;SDS011;5652;48.406;10.820;2023-03-01T08:54:05;21.75;;;15.13;;
11191;SDS011;5652;48.406;10.820;2023-03-01T08:56:33;19.52;;;14.27;;
11191;SDS011;5652;48.406;10.820;2023-03-01T08:59:01;20.33;;;15.40;;
11191;SDS011;5652;48.406;10.820;2023-03-01T09:01:29;23.42;;;15.77;;
11191;SDS011;5652;48.406;10.820;2023-03-01T09:03:56;21.77;;;15.80;;
11191;SDS011;5652;48.406;10.820;2023-03-01T09:06:23;22.60;;;14.27;;
11191;SDS011;5652;48.406;10.820;2023-03-01T09:08:51;22.75;;;15.48;;
11191;SDS011;5652;48.406;10.820;2023-03-01T09:11:20;22.08;;;14.50;;
11191;SDS011;5652;48.406;10.820;2023-03-01T09:13:48;22.88;;;14.60;;
11191;SDS011;5652;48.406;10.820;2023-03-01T09:16:16;21.85;;;15.13;;
11191;SDS011;5652;48.406;10.820;2023-03-01T09:18:44;20.48;;;13.88;;
11191;SDS011;5652;48.406;10.820;2023-03-01T09:21:12;20.60;;;14.80;;
11191;SDS011;5652;48.406;10.820;2023-03-01T09:23:40;21.52;;;14.95;;
11191;SDS011;5652;48.406;10.820;2023-03-01T09:26:08;21.02;;;14.82;;
11191;SDS011;5652;48.406;10.820;2023-03-01T09:28:36;20.25;;;13.88;;
11191;SDS011;5652;48.406;10.820;2023-03-01T09:31:03;19.15;;;13.30;;
11191;SDS011;5652;48.406;10.820;2023-03-01T09:33:31;21.80;;;12.57;;
11191;SDS011;5652;48.406;10.820;2023-03-01T09:36:00;21.83;;;14.05;;
11191;SDS011;5652;48.406;10.820;2023-03-01T09:38:28;18.88;;;13.00;;
11191;SDS011;5652;48.406;10.820;2023-03-01T09:40:55;19.50;;;12.82;;
11191;SDS011;5652;48.406;10.820;2023-03-01T09:43:23;19.00;;;13.52;;
11191;SDS011;5652;48.406;10.820;2023-03-01T09:45:52;19.10;;;11.80;;
11191;SDS011;5652;48.406;10.820;2023-03-01T09:48:21;18.92;;;12.57;;
11191;SDS011;5652;48.406;10.820;2023-03-01T09:50:49;18.40;;;12.50;;
11191;SDS011;5652;48.406;10.820;2023-03-01T09:53:19;18.27;;;12.13;;
11191;SDS011;5652;48.406;10.820;2023-03-01T09:55:48;15.50;;;11.25;;
11191;SDS011;5652;48.406;10.820;2023-03-01T09:58:32;17.67;;;11.57;;
11191;SDS011;5652;48.406;10.820;2023-03-01T10:01:02;17.38;;;12.27;;
11191;SDS011;5652;48.406;10.820;2023-03-01T10:03:34;17.02;;;12.35;;
11191;SDS011;5652;48.406;10.820;2023-03-01T10:06:04;16.75;;;11.88;;
11191;SDS011;5652;48.406;10.820;2023-03-01T10:08:36;17.20;;;11.77;;
11191;SDS011;5652;48.406;10.820;2023-03-01T10:11:13;16.95;;;11.65;;
11191;SDS011;5652;48.406;10.820;2023-03-01T10:13:45;17.35;;;12.20;;
11191;SDS011;5652;48.406;10.820;2023-03-01T10:16:15;15.70;;;12.05;;
11191;SDS011;5652;48.406;10.820;2023-03-01T10:18:43;15.90;;;10.77;;
11191;SDS011;5652;48.406;10.820;2023-03-01T10:21:14;18.13;;;11.37;;
11191;SDS011;5652;48.406;10.820;2023-03-01T10:23:43;18.25;;;11.60;;
11191;SDS011;5652;48.406;10.820;2023-03-01T10:26:17;19.05;;;11.38;;
11191;SDS011;5652;48.406;10.820;2023-03-01T10:28:50;17.05;;;11.45;;
11191;SDS011;5652;48.406;10.820;2023-03-01T10:31:22;16.57;;;11.27;;
11191;SDS011;5652;48.406;10.820;2023-03-01T10:33:53;15.67;;;10.57;;
11191;SDS011;5652;48.406;10.820;2023-03-01T10:36:22;17.90;;;11.80;;
11191;SDS011;5652;48.406;10.820;2023-03-01T10:38:51;16.75;;;11.48;;
11191;SDS011;5652;48.406;10.820;2023-03-01T10:41:19;17.05;;;10.55;;
11191;SDS011;5652;48.406;10.820;2023-03-01T10:43:48;17.17;;;10.25;;
11191;SDS011;5652;48.406;10.820;2023-03-01T10:46:23;17.75;;;12.13;;
11191;SDS011;5652;48.406;10.820;2023-03-01T10:49:07;18.65;;;12.07;;
11191;SDS011;5652;48.406;10.820;2023-03-01T10:51:38;18.50;;;11.88;;
11191;SDS011;5652;48.406;10.820;2023-03-01T10:54:08;16.75;;;11.20;;
11191;SDS011;5652;48.406;10.820;2023-03-01T10:56:45;14.15;;;8.70;;
11191;SDS011;5652;48.406;10.820;2023-03-01T10:59:20;13.18;;;8.80;;
11191;SDS011;5652;48.406;10.820;2023-03-01T11:01:49;13.48;;;9.10;;
11191;SDS011;5652;48.406;10.820;2023-03-01T11:04:27;15.10;;;9.63;;
11191;SDS011;5652;48.406;10.820;2023-03-01T11:06:57;16.20;;;10.20;;
11191;SDS011;5652;48.406;10.820;2023-03-01T11:09:26;14.90;;;9.82;;
11191;SDS011;5652;48.406;10.820;2023-03-01T11:12:02;15.38;;;10.27;;
11191;SDS011;5652;48.406;10.820;2023-03-01T11:14:31;16.38;;;10.30;;
11191;SDS011;5652;48.406;10.820;2023-03-01T11:17:01;16.27;;;10.90;;
11191;SDS011;5652;48.406;10.820;2023-03-01T11:19:28;14.88;;;9.13;;
11191;SDS011;5652;48.406;10.820;2023-03-01T11:21:57;16.93;;;10.43;;
11191;SDS011;5652;48.406;10.820;2023-03-01T11:24:29;17.08;;;10.40;;
11191;SDS011;5652;48.406;10.820;2023-03-01T11:26:56;17.40;;;11.73;;
11191;SDS011;5652;48.406;10.820;2023-03-01T11:29:27;15.77;;;10.87;;
11191;SDS011;5652;48.406;10.820;2023-03-01T11:31:58;18.85;;;11.57;;
11191;SDS011;5652;48.406;10.820;2023-03-01T11:34:30;15.23;;;10.20;;
11191;SDS011;5652;48.406;10.820;2023-03-01T11:37:01;16.08;;;10.75;;
11191;SDS011;5652;48.406;10.820;2023-03-01T11:39:32;15.07;;;9.65;;
11191;SDS011;5652;48.406;10.820;2023-03-01T11:42:04;16.08;;;11.07;;
11191;SDS011;5652;48.406;10.820;2023-03-01T11:44:33;14.77;;;10.40;;
11191;SDS011;5652;48.406;10.820;2023-03-01T11:47:06;15.57;;;10.43;;
11191;SDS011;5652;48.406;10.820;2023-03-01T11:49:40;16.35;;;10.57;;
11191;SDS011;5652;48.406;10.820;2023-03-01T11:52:14;16.92;;;10.80;;
11191;SDS011;5652;48.406;10.820;2023-03-01T11:54:50;13.10;;;8.55;;
11191;SDS011;5652;48.406;10.820;2023-03-01T11:57:25;16.88;;;11.27;;
11191;SDS011;5652;48.406;10.820;2023-03-01T12:00:02;15.35;;;10.27;;
11191;SDS011;5652;48.406;10.820;2023-03-01T12:02:43;18.38;;;11.27;;
11191;SDS011;5652;48.406;10.820;2023-03-01T12:05:24;16.02;;;11.32;;
11191;SDS011;5652;48.406;10.820;2023-03-01T12:07:56;15.73;;;10.13;;
11191;SDS011;5652;48.406;10.820;2023-03-01T12:10:27;16.25;;;10.75;;
11191;SDS011;5652;48.406;10.820;2023-03-01T12:13:01;16.27;;;10.93;;
11191;SDS011;5652;48.406;10.820;2023-03-01T12:15:37;14.82;;;10.77;;
11191;SDS011;5652;48.406;10.820;2023-03-01T12:18:13;16.05;;;10.48;;
11191;SDS011;5652;48.406;10.820;2023-03-01T12:20:46;13.63;;;9.60;;
11191;SDS011;5652;48.406;10.820;2023-03-01T12:23:22;16.55;;;11.30;;
11191;SDS011;5652;48.406;10.820;2023-03-01T12:25:54;15.73;;;10.00;;
11191;SDS011;5652;48.406;10.820;2023-03-01T12:28:32;14.95;;;9.82;;
11191;SDS011;5652;48.406;10.820;2023-03-01T12:31:11;15.13;;;10.18;;
11191;SDS011;5652;48.406;10.820;2023-03-01T12:33:47;15.23;;;9.30;;
11191;SDS011;5652;48.406;10.820;2023-03-01T12:36:25;14.43;;;9.32;;
11191;SDS011;5652;48.406;10.820;2023-03-01T12:38:59;14.55;;;9.57;;
11191;SDS011;5652;48.406;10.820;2023-03-01T12:41:35;15.57;;;10.05;;
11191;SDS011;5652;48.406;10.820;2023-03-01T12:44:10;14.50;;;9.90;;
11191;SDS011;5652;48.406;10.820;2023-03-01T12:46:42;14.38;;;9.80;;
11191;SDS011;5652;48.406;10.820;2023-03-01T12:49:13;15.05;;;9.00;;
11191;SDS011;5652;48.406;10.820;2023-03-01T12:51:42;15.20;;;10.05;;
11191;SDS011;5652;48.406;10.820;2023-03-01T12:54:13;13.65;;;8.32;;
11191;SDS011;5652;48.406;10.820;2023-03-01T12:56:43;12.68;;;8.07;;
11191;SDS011;5652;48.406;10.820;2023-03-01T12:59:18;14.90;;;9.75;;
11191;SDS011;5652;48.406;10.820;2023-03-01T13:01:49;13.13;;;8.57;;
11191;SDS011;5652;48.406;10.820;2023-03-01T13:04:27;14.05;;;9.02;;
11191;SDS011;5652;48.406;10.820;2023-03-01T13:06:58;12.38;;;8.68;;
11191;SDS011;5652;48.406;10.820;2023-03-01T13:09:30;13.93;;;9.68;;
11191;SDS011;5652;48.406;10.820;2023-03-01T13:12:02;12.48;;;8.60;;
11191;SDS011;5652;48.406;10.820;2023-03-01T13:14:36;15.73;;;9.63;;
11191;SDS011;5652;48.406;10.820;2023-03-01T13:17:04;14.77;;;9.50;;
11191;SDS011;5652;48.406;10.820;2023-03-01T13:19:31;14.48;;;9.07;;
11191;SDS011;5652;48.406;10.820;2023-03-01T13:22:01;13.55;;;8.50;;
11191;SDS011;5652;48.406;10.820;2023-03-01T13:24:47;12.68;;;8.43;;
11191;SDS011;5652;48.406;10.820;2023-03-01T13:27:23;13.57;;;9.48;;
11191;SDS011;5652;48.406;10.820;2023-03-01T13:29:54;11.00;;;7.28;;
11191;SDS011;5652;48.406;10.820;2023-03-01T13:32:23;12.20;;;7.70;;
11191;SDS011;5652;48.406;10.820;2023-03-01T13:37:35;13.13;;;8.80;;
11191;SDS011;5652;48.406;10.820;2023-03-01T13:40:04;14.77;;;9.00;;
11191;SDS011;5652;48.406;10.820;2023-03-01T13:42:37;14.13;;;9.15;;
11191;SDS011;5652;48.406;10.820;2023-03-01T13:45:12;13.60;;;7.95;;
11191;SDS011;5652;48.406;10.820;2023-03-01T13:47:41;13.55;;;7.75;;
11191;SDS011;5652;48.406;10.820;2023-03-01T13:50:15;12.23;;;8.38;;
11191;SDS011;5652;48.406;10.820;2023-03-01T13:52:43;10.63;;;7.15;;
11191;SDS011;5652;48.406;10.820;2023-03-01T13:55:16;14.90;;;8.68;;
11191;SDS011;5652;48.406;10.820;2023-03-01T13:57:46;12.73;;;8.73;;
11191;SDS011;5652;48.406;10.820;2023-03-01T14:00:25;13.25;;;8.68;;
11191;SDS011;5652;48.406;10.820;2023-03-01T14:03:03;12.32;;;7.78;;
11191;SDS011;5652;48.406;10.820;2023-03-01T14:05:31;12.10;;;7.13;;
11191;SDS011;5652;48.406;10.820;2023-03-01T14:08:01;13.23;;;8.43;;
11191;SDS011;5652;48.406;10.820;2023-03-01T14:10:30;13.57;;;8.00;;
11191;SDS011;5652;48.406;10.820;2023-03-01T14:13:02;12.40;;;7.93;;
11191;SDS011;5652;48.406;10.820;2023-03-01T14:15:34;12.57;;;7.83;;
11191;SDS011;5652;48.406;10.820;2023-03-01T14:18:03;12.57;;;8.50;;
11191;SDS011;5652;48.406;10.820;2023-03-01T14:20:33;13.40;;;9.35;;
11191;SDS011;5652;48.406;10.820;2023-03-01T14:23:08;13.40;;;8.88;;
11191;SDS011;5652;48.406;10.820;2023-03-01T14:25:36;13.87;;;9.20;;
11191;SDS011;5652;48.406;10.820;2023-03-01T14:28:13;12.95;;;8.85;;
11191;SDS011;5652;48.406;10.820;2023-03-01T14:30:42;14.25;;;8.40;;
11191;SDS011;5652;48.406;10.820;2023-03-01T14:33:18;16.08;;;8.50;;
11191;SDS011;5652;48.406;10.820;2023-03-01T14:35:51;13.52;;;8.55;;
11191;SDS011;5652;48.406;10.820;2023-03-01T14:38:20;12.00;;;6.85;;